sensor_id;sensor_type;location;lat;lon;timestamp;pressure;altitude;pressure_sealevel;temperature;humidity
7264;BME280;3673;52.480;13.348;2023-08-06T00:00:39;100397.66;;;22.74;58.99
7264;BME280;3673;52.480;13.348;2023-08-06T00:03:06;100400.84;;;22.80;59.12
7264;BME280;3673;52.480;13.348;2023-08-06T00:05:33;100399.53;;;22.87;58.76
7264;BME280;3673;52.480;13.348;2023-08-06T00:08:01;100393.75;;;22.64;59.66
7264;BME280;3673;52.480;13.348;2023-08-06T00:10:28;100389.41;;;22.78;59.46
7264;BME280;3673;52.480;13.348;2023-08-06T00:12:54;100387.78;;;22.58;59.75
7264;BME280;3673;52.480;13.348;2023-08-06T00:15:22;100386.97;;;22.74;59.34
7264;BME280;3673;52.480;13.348;2023-08-06T00:17:49;100380.56;;;22.92;58.56
7264;BME280;3673;52.480;13.348;2023-08-06T00:20:15;100372.88;;;22.87;59.07
7264;BME280;3673;52.480;13.348;2023-08-06T00:22:42;100371.81;;;22.90;58.61
7264;BME280;3673;52.480;13.348;2023-08-06T00:25:10;100370.59;;;22.95;58.63
7264;BME280;3673;52.480;13.348;2023-08-06T00:27:37;100372.66;;;23.06;58.30
7264;BME280;3673;52.480;13.348;2023-08-06T00:30:05;100370.09;;;23.04;58.63
7264;BME280;3673;52.480;13.348;2023-08-06T00:32:32;100365.81;;;22.71;59.57
7264;BME280;3673;52.480;13.348;2023-08-06T00:34:59;100370.09;;;22.89;59.05
7264;BME280;3673;52.480;13.348;2023-08-06T00:37:25;100371.25;;;22.85;58.73
7264;BME280;3673;52.480;13.348;2023-08-06T00:39:52;100373.34;;;22.63;59.50
7264;BME280;3673;52.480;13.348;2023-08-06T00:42:20;100371.22;;;22.38;60.07
7264;BME280;3673;52.480;13.348;2023-08-06T00:44:48;100368.88;;;22.47;59.96
7264;BME280;3673;52.480;13.348;2023-08-06T00:47:15;100367.25;;;22.76;58.92
7264;BME280;3673;52.480;13.348;2023-08-06T00:49:42;100367.69;;;22.69;59.21
7264;BME280;3673;52.480;13.348;2023-08-06T00:52:09;100358.41;;;22.76;58.64
7264;BME280;3673;52.480;13.348;2023-08-06T00:54:36;100361.06;;;22.60;59.43
7264;BME280;3673;52.480;13.348;2023-08-06T00:57:04;100362.09;;;22.57;59.39
7264;BME280;3673;52.480;13.348;2023-08-06T00:59:32;100364.50;;;22.46;59.58
7264;BME280;3673;52.480;13.348;2023-08-06T01:02:00;100349.84;;;22.06;60.86
7264;BME280;3673;52.480;13.348;2023-08-06T01:04:27;100355.53;;;22.32;60.05
7264;BME280;3673;52.480;13.348;2023-08-06T01:07:06;100347.97;;;22.55;59.29
7264;BME280;3673;52.480;13.348;2023-08-06T01:09:45;100352.91;;;22.47;59.37
7264;BME280;3673;52.480;13.348;2023-08-06T01:12:34;100346.28;;;22.54;58.91
7264;BME280;3673;52.480;13.348;2023-08-06T01:15:15;100348.31;;;22.49;59.25
7264;BME280;3673;52.480;13.348;2023-08-06T01:17:44;100349.16;;;22.66;58.98
7264;BME280;3673;52.480;13.348;2023-08-06T01:20:11;100345.41;;;22.54;59.04
7264;BME280;3673;52.480;13.348;2023-08-06T01:22:39;100343.78;;;22.67;58.92
7264;BME280;3673;52.480;13.348;2023-08-06T01:25:07;100336.78;;;22.49;59.23
7264;BME280;3673;52.480;13.348;2023-08-06T01:27:43;100329.06;;;22.44;59.51
7264;BME280;3673;52.480;13.348;2023-08-06T01:30:15;100326.13;;;22.49;59.33
7264;BME280;3673;52.480;13.348;2023-08-06T01:32:46;100330.09;;;22.42;59.70
7264;BME280;3673;52.480;13.348;2023-08-06T01:35:17;100324.44;;;22.48;59.54
7264;BME280;3673;52.480;13.348;2023-08-06T01:37:47;100320.44;;;22.55;59.56
7264;BME280;3673;52.480;13.348;2023-08-06T01:40:14;100322.38;;;22.37;59.96
7264;BME280;3673;52.480;13.348;2023-08-06T01:42:41;100319.59;;;22.54;60.03
7264;BME280;3673;52.480;13.348;2023-08-06T01:45:09;100309.78;;;22.55;59.43
7264;BME280;3673;52.480;13.348;2023-08-06T01:47:36;100313.41;;;22.38;59.95
7264;BME280;3673;52.480;13.348;2023-08-06T01:50:03;100314.19;;;22.40;60.12
7264;BME280;3673;52.480;13.348;2023-08-06T01:52:30;100314.09;;;22.26;60.63
7264;BME280;3673;52.480;13.348;2023-08-06T01:54:59;100296.66;;;22.36;60.41
7264;BME280;3673;52.480;13.348;2023-08-06T01:57:25;100310.31;;;22.46;60.47
7264;BME280;3673;52.480;13.348;2023-08-06T01:59:52;100302.38;;;22.60;60.01
7264;BME280;3673;52.480;13.348;2023-08-06T02:02:19;100300.25;;;22.51;60.13
7264;BME280;3673;52.480;13.348;2023-08-06T02:04:45;100299.50;;;22.18;60.99
7264;BME280;3673;52.480;13.348;2023-08-06T02:07:12;100301.94;;;22.05;61.69
7264;BME280;3673;52.480;13.348;2023-08-06T02:09:39;100297.69;;;21.85;62.52
7264;BME280;3673;52.480;13.348;2023-08-06T02:12:08;100294.16;;;22.18;61.56
7264;BME280;3673;52.480;13.348;2023-08-06T02:14:35;100291.84;;;22.12;61.41
7264;BME280;3673;52.480;13.348;2023-08-06T02:17:01;100288.50;;;22.08;61.87
7264;BME280;3673;52.480;13.348;2023-08-06T02:19:28;100291.91;;;22.10;62.24
7264;BME280;3673;52.480;13.348;2023-08-06T02:21:55;100297.34;;;22.24;61.84
7264;BME280;3673;52.480;13.348;2023-08-06T02:24:22;100294.41;;;22.29;61.43
7264;BME280;3673;52.480;13.348;2023-08-06T02:26:48;100288.91;;;22.00;62.19
7264;BME280;3673;52.480;13.348;2023-08-06T02:29:18;100281.31;;;21.93;62.59
7264;BME280;3673;52.480;13.348;2023-08-06T02:31:45;100286.50;;;22.27;61.66
7264;BME280;3673;52.480;13.348;2023-08-06T02:34:11;100280.50;;;22.08;62.21
7264;BME280;3673;52.480;13.348;2023-08-06T02:36:38;100276.78;;;21.95;62.29
7264;BME280;3673;52.480;13.348;2023-08-06T02:39:05;100277.72;;;22.25;61.57
7264;BME280;3673;52.480;13.348;2023-08-06T02:41:32;100267.50;;;22.18;61.87
7264;BME280;3673;52.480;13.348;2023-08-06T02:43:58;100267.84;;;21.96;62.25
7264;BME280;3673;52.480;13.348;2023-08-06T02:46:26;100259.31;;;21.89;63.27
7264;BME280;3673;52.480;13.348;2023-08-06T02:48:53;100255.56;;;21.76;63.11
7264;BME280;3673;52.480;13.348;2023-08-06T02:51:20;100259.47;;;21.86;63.20
7264;BME280;3673;52.480;13.348;2023-08-06T02:53:48;100257.00;;;21.99;62.75
7264;BME280;3673;52.480;13.348;2023-08-06T02:56:15;100249.69;;;22.02;62.72
7264;BME280;3673;52.480;13.348;2023-08-06T02:58:42;100252.19;;;21.90;63.18
7264;BME280;3673;52.480;13.348;2023-08-06T03:01:08;100248.28;;;21.80;63.07
7264;BME280;3673;52.480;13.348;2023-08-06T03:03:36;100256.78;;;21.86;63.52
7264;BME280;3673;52.480;13.348;2023-08-06T03:06:03;100257.56;;;21.88;63.24
7264;BME280;3673;52.480;13.348;2023-08-06T03:08:30;100250.28;;;21.92;63.42
7264;BME280;3673;52.480;13.348;2023-08-06T03:10:57;100259.34;;;21.72;63.53
7264;BME280;3673;52.480;13.348;2023-08-06T03:13:24;100259.34;;;21.72;63.07
7264;BME280;3673;52.480;13.348;2023-08-06T03:15:54;100253.97;;;21.41;64.17
7264;BME280;3673;52.480;13.348;2023-08-06T03:18:22;100245.47;;;21.50;64.04
7264;BME280;3673;52.480;13.348;2023-08-06T03:20:50;100247.47;;;21.62;63.92
7264;BME280;3673;52.480;13.348;2023-08-06T03:23:17;100244.81;;;21.62;63.54
7264;BME280;3673;52.480;13.348;2023-08-06T03:25:44;100240.53;;;21.60;63.77
7264;BME280;3673;52.480;13.348;2023-08-06T03:28:11;100239.94;;;21.54;63.87
7264;BME280;3673;52.480;13.348;2023-08-06T03:30:37;100235.00;;;21.47;64.39
7264;BME280;3673;52.480;13.348;2023-08-06T03:33:04;100231.09;;;21.70;63.63
7264;BME280;3673;52.480;13.348;2023-08-06T03:35:31;100224.91;;;21.69;63.42
7264;BME280;3673;52.480;13.348;2023-08-06T03:37:59;100227.09;;;21.78;63.05
7264;BME280;3673;52.480;13.348;2023-08-06T03:40:26;100219.44;;;21.88;62.53
7264;BME280;3673;52.480;13.348;2023-08-06T03:42:52;100213.50;;;21.67;62.83
7264;BME280;3673;52.480;13.348;2023-08-06T03:45:19;100217.31;;;21.62;63.00
7264;BME280;3673;52.480;13.348;2023-08-06T03:47:46;100212.22;;;21.74;62.68
7264;BME280;3673;52.480;13.348;2023-08-06T03:50:13;100214.19;;;21.71;63.04
7264;BME280;3673;52.480;13.348;2023-08-06T03:52:40;100198.31;;;21.85;62.62
7264;BME280;3673;52.480;13.348;2023-08-06T03:55:08;100204.00;;;21.62;62.97
7264;BME280;3673;52.480;13.348;2023-08-06T03:57:35;100199.38;;;21.65;62.63
7264;BME280;3673;52.480;13.348;2023-08-06T04:00:02;100199.81;;;21.58;63.08
7264;BME280;3673;52.480;13.348;2023-08-06T04:02:29;100190.97;;;21.57;62.91
7264;BME280;3673;52.480;13.348;2023-08-06T04:04:56;100197.16;;;21.58;63.52
7264;BME280;3673;52.480;13.348;2023-08-06T04:07:24;100192.69;;;21.58;63.35
7264;BME280;3673;52.480;13.348;2023-08-06T04:09:53;100190.28;;;21.53;63.34
7264;BME280;3673;52.480;13.348;2023-08-06T04:12:21;100181.25;;;21.56;63.67
7264;BME280;3673;52.480;13.348;2023-08-06T04:14:49;100191.97;;;21.39;63.94
7264;BME280;3673;52.480;13.348;2023-08-06T04:17:15;100184.50;;;21.45;63.78
7264;BME280;3673;52.480;13.348;2023-08-06T04:19:42;100182.19;;;21.39;63.88
7264;BME280;3673;52.480;13.348;2023-08-06T04:22:09;100176.13;;;21.20;64.47
7264;BME280;3673;52.480;13.348;2023-08-06T04:24:36;100175.38;;;21.18;64.97
7264;BME280;3673;52.480;13.348;2023-08-06T04:27:04;100175.03;;;21.24;64.58
7264;BME280;3673;52.480;13.348;2023-08-06T04:29:32;100175.28;;;21.35;63.99
7264;BME280;3673;52.480;13.348;2023-08-06T04:31:58;100173.53;;;21.19;64.26
7264;BME280;3673;52.480;13.348;2023-08-06T04:34:25;100161.56;;;21.27;63.98
7264;BME280;3673;52.480;13.348;2023-08-06T04:36:52;100157.28;;;21.25;64.05
7264;BME280;3673;52.480;13.348;2023-08-06T04:39:19;100160.53;;;21.30;64.35
7264;BME280;3673;52.480;13.348;2023-08-06T04:41:45;100152.00;;;20.90;65.27
7264;BME280;3673;52.480;13.348;2023-08-06T04:44:12;100148.66;;;21.02;65.66
7264;BME280;3673;52.480;13.348;2023-08-06T04:46:40;100147.63;;;21.05;65.39
7264;BME280;3673;52.480;13.348;2023-08-06T04:49:07;100136.81;;;20.92;65.07
7264;BME280;3673;52.480;13.348;2023-08-06T04:51:34;100142.81;;;21.13;64.62
7264;BME280;3673;52.480;13.348;2023-08-06T04:54:00;100141.91;;;21.30;64.23
7264;BME280;3673;52.480;13.348;2023-08-06T04:56:27;100136.66;;;21.28;64.37
7264;BME280;3673;52.480;13.348;2023-08-06T04:58:54;100133.25;;;21.09;64.80
7264;BME280;3673;52.480;13.348;2023-08-06T05:01:21;100132.63;;;21.21;64.31
7264;BME280;3673;52.480;13.348;2023-08-06T05:03:49;100134.94;;;21.27;64.37
7264;BME280;3673;52.480;13.348;2023-08-06T05:06:15;100133.41;;;21.23;64.46
7264;BME280;3673;52.480;13.348;2023-08-06T05:08:42;100132.13;;;21.30;64.04
7264;BME280;3673;52.480;13.348;2023-08-06T05:11:09;100134.94;;;21.27;63.54
7264;BME280;3673;52.480;13.348;2023-08-06T05:13:36;100130.16;;;21.34;63.83
7264;BME280;3673;52.480;13.348;2023-08-06T05:16:03;100124.56;;;21.38;63.74
7264;BME280;3673;52.480;13.348;2023-08-06T05:18:30;100121.91;;;21.38;63.73
7264;BME280;3673;52.480;13.348;2023-08-06T05:20:58;100114.59;;;21.42;64.21
7264;BME280;3673;52.480;13.348;2023-08-06T05:23:25;100112.03;;;21.40;64.52
7264;BME280;3673;52.480;13.348;2023-08-06T05:25:52;100107.47;;;21.42;63.70
7264;BME280;3673;52.480;13.348;2023-08-06T05:28:18;100100.97;;;21.48;63.58
7264;BME280;3673;52.480;13.348;2023-08-06T05:30:45;100100.97;;;21.64;63.29
7264;BME280;3673;52.480;13.348;2023-08-06T05:33:12;100106.69;;;21.72;62.93
7264;BME280;3673;52.480;13.348;2023-08-06T05:35:41;100101.72;;;21.66;62.63
7264;BME280;3673;52.480;13.348;2023-08-06T05:38:09;100094.78;;;21.63;62.84
7264;BME280;3673;52.480;13.348;2023-08-06T05:40:36;100095.47;;;21.67;62.45
7264;BME280;3673;52.480;13.348;2023-08-06T05:43:03;100090.84;;;21.70;62.27
7264;BME280;3673;52.480;13.348;2023-08-06T05:45:29;100095.81;;;21.61;62.48
7264;BME280;3673;52.480;13.348;2023-08-06T05:47:56;100095.53;;;21.65;62.95
7264;BME280;3673;52.480;13.348;2023-08-06T05:50:24;100106.88;;;21.69;62.55
7264;BME280;3673;52.480;13.348;2023-08-06T05:52:51;100103.72;;;21.78;62.25
7264;BME280;3673;52.480;13.348;2023-08-06T05:55:20;100107.06;;;21.81;62.30
7264;BME280;3673;52.480;13.348;2023-08-06T05:57:47;100100.09;;;21.63;62.54
7264;BME280;3673;52.480;13.348;2023-08-06T06:00:14;100102.94;;;21.76;62.58
7264;BME280;3673;52.480;13.348;2023-08-06T06:02:41;100094.31;;;21.86;62.15
7264;BME280;3673;52.480;13.348;2023-08-06T06:05:08;100091.16;;;21.80;62.26
7264;BME280;3673;52.480;13.348;2023-08-06T06:07:35;100096.75;;;21.60;62.31
7264;BME280;3673;52.480;13.348;2023-08-06T06:10:02;100084.72;;;21.84;62.48
7264;BME280;3673;52.480;13.348;2023-08-06T06:12:30;100086.69;;;21.80;62.14
7264;BME280;3673;52.480;13.348;2023-08-06T06:14:57;100077.47;;;21.86;62.23
7264;BME280;3673;52.480;13.348;2023-08-06T06:17:23;100082.75;;;21.87;62.04
7264;BME280;3673;52.480;13.348;2023-08-06T06:19:50;100085.66;;;21.83;61.86
7264;BME280;3673;52.480;13.348;2023-08-06T06:22:17;100067.69;;;21.86;62.15
7264;BME280;3673;52.480;13.348;2023-08-06T06:24:44;100067.00;;;21.98;61.68
7264;BME280;3673;52.480;13.348;2023-08-06T06:27:11;100059.00;;;21.98;62.08
7264;BME280;3673;52.480;13.348;2023-08-06T06:29:39;100070.72;;;21.96;62.48
7264;BME280;3673;52.480;13.348;2023-08-06T06:32:06;100069.91;;;22.10;61.71
7264;BME280;3673;52.480;13.348;2023-08-06T06:34:33;100069.28;;;21.90;62.33
7264;BME280;3673;52.480;13.348;2023-08-06T06:37:00;100069.00;;;21.95;62.37
7264;BME280;3673;52.480;13.348;2023-08-06T06:39:26;100073.38;;;21.96;62.08
7264;BME280;3673;52.480;13.348;2023-08-06T06:41:53;100062.56;;;21.83;62.73
7264;BME280;3673;52.480;13.348;2023-08-06T06:44:20;100064.53;;;21.80;62.88
7264;BME280;3673;52.480;13.348;2023-08-06T06:46:48;100063.13;;;21.88;62.59
7264;BME280;3673;52.480;13.348;2023-08-06T06:49:14;100066.59;;;21.90;62.64
7264;BME280;3673;52.480;13.348;2023-08-06T06:51:41;100066.50;;;21.92;63.14
7264;BME280;3673;52.480;13.348;2023-08-06T06:54:08;100067.28;;;21.94;63.09
7264;BME280;3673;52.480;13.348;2023-08-06T06:56:35;100069.41;;;21.72;62.92
7264;BME280;3673;52.480;13.348;2023-08-06T06:59:01;100068.34;;;21.60;62.48
7264;BME280;3673;52.480;13.348;2023-08-06T07:01:28;100067.44;;;21.75;62.44
7264;BME280;3673;52.480;13.348;2023-08-06T07:03:56;100068.34;;;21.91;62.54
7264;BME280;3673;52.480;13.348;2023-08-06T07:06:23;100072.88;;;22.19;61.70
7264;BME280;3673;52.480;13.348;2023-08-06T07:08:50;100066.06;;;22.29;61.92
7264;BME280;3673;52.480;13.348;2023-08-06T07:11:17;100071.00;;;22.35;61.31
7264;BME280;3673;52.480;13.348;2023-08-06T07:13:44;100075.03;;;22.13;62.16
7264;BME280;3673;52.480;13.348;2023-08-06T07:16:11;100072.34;;;21.83;62.52
7264;BME280;3673;52.480;13.348;2023-08-06T07:18:37;100076.81;;;21.82;62.65
7264;BME280;3673;52.480;13.348;2023-08-06T07:21:06;100070.72;;;21.96;62.73
7264;BME280;3673;52.480;13.348;2023-08-06T07:23:32;100075.00;;;21.83;62.40
7264;BME280;3673;52.480;13.348;2023-08-06T07:25:59;100074.25;;;21.81;62.09
7264;BME280;3673;52.480;13.348;2023-08-06T07:28:26;100086.94;;;21.76;62.90
7264;BME280;3673;52.480;13.348;2023-08-06T07:30:53;100083.16;;;21.80;62.33
7264;BME280;3673;52.480;13.348;2023-08-06T07:33:19;100075.19;;;21.95;62.13
7264;BME280;3673;52.480;13.348;2023-08-06T07:35:46;100069.81;;;22.11;62.62
7264;BME280;3673;52.480;13.348;2023-08-06T07:38:14;100079.94;;;21.90;62.59
7264;BME280;3673;52.480;13.348;2023-08-06T07:40:41;100070.28;;;22.03;62.10
7264;BME280;3673;52.480;13.348;2023-08-06T07:43:08;100074.41;;;21.93;62.23
7264;BME280;3673;52.480;13.348;2023-08-06T07:45:35;100071.03;;;22.05;61.89
7264;BME280;3673;52.480;13.348;2023-08-06T07:48:04;100068.22;;;21.93;62.41
7264;BME280;3673;52.480;13.348;2023-08-06T07:50:31;100070.53;;;21.99;61.86
7264;BME280;3673;52.480;13.348;2023-08-06T07:52:58;100077.16;;;22.08;61.61
7264;BME280;3673;52.480;13.348;2023-08-06T07:55:26;100072.53;;;21.80;61.71
7264;BME280;3673;52.480;13.348;2023-08-06T07:57:54;100065.66;;;21.91;61.83
7264;BME280;3673;52.480;13.348;2023-08-06T08:00:20;100065.56;;;21.93;61.95
7264;BME280;3673;52.480;13.348;2023-08-06T08:02:47;100064.69;;;21.92;61.90
7264;BME280;3673;52.480;13.348;2023-08-06T08:05:14;100064.31;;;22.14;61.36
7264;BME280;3673;52.480;13.348;2023-08-06T08:07:41;100059.72;;;22.46;60.84
7264;BME280;3673;52.480;13.348;2023-08-06T08:10:08;100063.81;;;22.37;61.01
7264;BME280;3673;52.480;13.348;2023-08-06T08:12:36;100058.34;;;22.25;61.70
7264;BME280;3673;52.480;13.348;2023-08-06T08:15:04;100065.47;;;22.24;61.31
7264;BME280;3673;52.480;13.348;2023-08-06T08:17:31;100044.69;;;22.15;61.53
7264;BME280;3673;52.480;13.348;2023-08-06T08:19:58;100047.00;;;22.21;61.61
7264;BME280;3673;52.480;13.348;2023-08-06T08:22:24;100042.97;;;22.44;60.92
7264;BME280;3673;52.480;13.348;2023-08-06T08:24:51;100046.06;;;22.66;60.76
7264;BME280;3673;52.480;13.348;2023-08-06T08:27:18;100045.78;;;22.71;61.38
7264;BME280;3673;52.480;13.348;2023-08-06T08:29:46;100047.16;;;22.48;61.61
7264;BME280;3673;52.480;13.348;2023-08-06T08:32:13;100045.03;;;22.25;62.18
7264;BME280;3673;52.480;13.348;2023-08-06T08:34:39;100039.03;;;22.21;61.85
7264;BME280;3673;52.480;13.348;2023-08-06T08:37:06;100029.63;;;22.00;62.82
7264;BME280;3673;52.480;13.348;2023-08-06T08:39:33;100032.72;;;22.22;62.79
7264;BME280;3673;52.480;13.348;2023-08-06T08:42:00;100034.38;;;22.25;62.60
7264;BME280;3673;52.480;13.348;2023-08-06T08:44:27;100029.88;;;22.25;63.02
7264;BME280;3673;52.480;13.348;2023-08-06T08:46:57;100024.09;;;22.33;63.26
7264;BME280;3673;52.480;13.348;2023-08-06T08:49:24;100025.25;;;22.43;62.71
7264;BME280;3673;52.480;13.348;2023-08-06T08:51:53;100016.88;;;22.35;62.78
7264;BME280;3673;52.480;13.348;2023-08-06T08:54:23;100010.34;;;22.11;63.27
7264;BME280;3673;52.480;13.348;2023-08-06T08:56:50;100012.59;;;22.02;63.94
7264;BME280;3673;52.480;13.348;2023-08-06T08:59:17;100002.50;;;21.93;64.45
7264;BME280;3673;52.480;13.348;2023-08-06T09:01:46;100004.47;;;22.20;63.92
7264;BME280;3673;52.480;13.348;2023-08-06T09:04:18;100010.75;;;22.33;63.96
7264;BME280;3673;52.480;13.348;2023-08-06T09:06:48;100003.38;;;22.66;63.04
7264;BME280;3673;52.480;13.348;2023-08-06T09:09:24;99993.84;;;22.48;62.84
7264;BME280;3673;52.480;13.348;2023-08-06T09:11:53;99995.06;;;22.28;63.65
7264;BME280;3673;52.480;13.348;2023-08-06T09:14:22;99992.63;;;22.10;64.33
7264;BME280;3673;52.480;13.348;2023-08-06T09:16:48;99986.06;;;22.15;63.91
7264;BME280;3673;52.480;13.348;2023-08-06T09:19:15;99985.06;;;22.18;64.07
7264;BME280;3673;52.480;13.348;2023-08-06T09:21:45;99980.25;;;21.79;65.16
7264;BME280;3673;52.480;13.348;2023-08-06T09:24:14;99980.22;;;22.24;64.23
7264;BME280;3673;52.480;13.348;2023-08-06T09:26:44;99988.56;;;22.32;64.15
7264;BME280;3673;52.480;13.348;2023-08-06T09:29:11;99974.31;;;22.33;63.61
7264;BME280;3673;52.480;13.348;2023-08-06T09:31:42;99978.88;;;22.17;63.69
7264;BME280;3673;52.480;13.348;2023-08-06T09:34:11;99965.63;;;22.16;63.89
7264;BME280;3673;52.480;13.348;2023-08-06T09:36:41;99972.88;;;22.42;63.37
7264;BME280;3673;52.480;13.348;2023-08-06T09:39:15;99978.56;;;22.08;64.06
7264;BME280;3673;52.480;13.348;2023-08-06T09:41:42;99960.66;;;22.10;64.29
7264;BME280;3673;52.480;13.348;2023-08-06T09:44:16;99962.09;;;22.15;64.57
7264;BME280;3673;52.480;13.348;2023-08-06T09:46:47;99956.47;;;22.05;64.75
7264;BME280;3673;52.480;13.348;2023-08-06T09:49:14;99955.72;;;22.03;64.23
7264;BME280;3673;52.480;13.348;2023-08-06T09:51:41;99951.69;;;21.96;64.91
7264;BME280;3673;52.480;13.348;2023-08-06T09:54:12;99954.22;;;22.28;64.25
7264;BME280;3673;52.480;13.348;2023-08-06T09:56:40;99950.66;;;21.99;64.50
7264;BME280;3673;52.480;13.348;2023-08-06T09:59:08;99950.41;;;22.18;63.97
7264;BME280;3673;52.480;13.348;2023-08-06T10:01:37;99951.81;;;22.09;64.30
7264;BME280;3673;52.480;13.348;2023-08-06T10:04:05;99941.66;;;22.30;63.89
7264;BME280;3673;52.480;13.348;2023-08-06T10:06:34;99946.66;;;21.92;64.04
7264;BME280;3673;52.480;13.348;2023-08-06T10:09:02;99947.84;;;21.86;64.75
7264;BME280;3673;52.480;13.348;2023-08-06T10:11:29;99948.59;;;22.04;64.90
7264;BME280;3673;52.480;13.348;2023-08-06T10:14:04;99937.94;;;22.18;64.25
7264;BME280;3673;52.480;13.348;2023-08-06T10:16:33;99937.56;;;22.10;64.31
7264;BME280;3673;52.480;13.348;2023-08-06T10:19:01;99929.91;;;21.90;65.31
7264;BME280;3673;52.480;13.348;2023-08-06T10:21:31;99931.28;;;22.11;64.86
7264;BME280;3673;52.480;13.348;2023-08-06T10:23:58;99928.25;;;22.31;64.35
7264;BME280;3673;52.480;13.348;2023-08-06T10:26:27;99922.69;;;22.48;64.24
7264;BME280;3673;52.480;13.348;2023-08-06T10:28:55;99925.25;;;22.22;64.68
7264;BME280;3673;52.480;13.348;2023-08-06T10:31:59;99928.97;;;22.76;63.36
7264;BME280;3673;52.480;13.348;2023-08-06T10:34:53;99932.41;;;22.64;63.75
7264;BME280;3673;52.480;13.348;2023-08-06T10:37:21;99934.50;;;22.87;63.29
7264;BME280;3673;52.480;13.348;2023-08-06T10:39:49;99932.50;;;22.62;63.30
7264;BME280;3673;52.480;13.348;2023-08-06T10:42:21;99921.88;;;22.48;63.93
7264;BME280;3673;52.480;13.348;2023-08-06T10:45:19;99919.94;;;22.50;63.49
7264;BME280;3673;52.480;13.348;2023-08-06T10:47:48;99914.50;;;22.80;62.93
7264;BME280;3673;52.480;13.348;2023-08-06T10:50:16;99914.97;;;22.86;62.85
7264;BME280;3673;52.480;13.348;2023-08-06T10:52:43;99916.38;;;22.92;62.58
7264;BME280;3673;52.480;13.348;2023-08-06T10:55:11;99906.69;;;22.77;62.89
7264;BME280;3673;52.480;13.348;2023-08-06T10:57:38;99915.38;;;22.80;62.77
7264;BME280;3673;52.480;13.348;2023-08-06T11:00:09;99901.88;;;22.96;62.96
7264;BME280;3673;52.480;13.348;2023-08-06T11:02:41;99906.06;;;23.00;63.36
7264;BME280;3673;52.480;13.348;2023-08-06T11:05:12;99908.53;;;23.03;62.88
7264;BME280;3673;52.480;13.348;2023-08-06T11:07:39;99900.16;;;22.68;63.02
7264;BME280;3673;52.480;13.348;2023-08-06T11:10:09;99902.63;;;22.57;64.09
7264;BME280;3673;52.480;13.348;2023-08-06T11:12:42;99905.47;;;22.54;63.85
7264;BME280;3673;52.480;13.348;2023-08-06T11:15:10;99887.34;;;22.59;63.66
7264;BME280;3673;52.480;13.348;2023-08-06T11:17:40;99893.28;;;22.78;62.76
7264;BME280;3673;52.480;13.348;2023-08-06T11:20:10;99890.69;;;22.77;61.62
7264;BME280;3673;52.480;13.348;2023-08-06T11:22:38;99878.13;;;22.65;61.77
7264;BME280;3673;52.480;13.348;2023-08-06T11:25:06;99884.28;;;22.65;61.82
7264;BME280;3673;52.480;13.348;2023-08-06T11:27:33;99880.50;;;22.69;62.26
7264;BME280;3673;52.480;13.348;2023-08-06T11:30:00;99878.41;;;22.88;62.16
7264;BME280;3673;52.480;13.348;2023-08-06T11:32:27;99873.63;;;22.79;62.28
7264;BME280;3673;52.480;13.348;2023-08-06T11:34:55;99871.00;;;22.92;62.13
7264;BME280;3673;52.480;13.348;2023-08-06T11:37:23;99871.75;;;22.81;62.20
7264;BME280;3673;52.480;13.348;2023-08-06T11:39:51;99868.47;;;22.90;61.95
7264;BME280;3673;52.480;13.348;2023-08-06T11:42:19;99863.00;;;22.92;62.44
7264;BME280;3673;52.480;13.348;2023-08-06T11:44:46;99867.91;;;22.85;62.11
7264;BME280;3673;52.480;13.348;2023-08-06T11:47:15;99856.88;;;22.63;62.43
7264;BME280;3673;52.480;13.348;2023-08-06T11:49:47;99859.66;;;22.62;62.86
7264;BME280;3673;52.480;13.348;2023-08-06T11:52:16;99851.47;;;22.65;62.41
7264;BME280;3673;52.480;13.348;2023-08-06T11:54:47;99856.06;;;22.89;61.73
7264;BME280;3673;52.480;13.348;2023-08-06T11:57:15;99858.81;;;22.61;62.08
7264;BME280;3673;52.480;13.348;2023-08-06T11:59:43;99859.22;;;22.27;63.46
7264;BME280;3673;52.480;13.348;2023-08-06T12:02:10;99852.84;;;22.29;64.30
7264;BME280;3673;52.480;13.348;2023-08-06T12:05:00;99852.41;;;21.94;64.30
7264;BME280;3673;52.480;13.348;2023-08-06T12:07:29;99849.75;;;21.94;65.48
7264;BME280;3673;52.480;13.348;2023-08-06T12:09:58;99849.16;;;22.03;65.43
7264;BME280;3673;52.480;13.348;2023-08-06T12:12:25;99848.50;;;22.14;66.08
7264;BME280;3673;52.480;13.348;2023-08-06T12:14:51;99838.91;;;22.12;65.77
7264;BME280;3673;52.480;13.348;2023-08-06T12:17:18;99842.75;;;22.34;65.42
7264;BME280;3673;52.480;13.348;2023-08-06T12:19:46;99843.63;;;22.21;65.68
7264;BME280;3673;52.480;13.348;2023-08-06T12:22:14;99847.91;;;22.09;66.29
7264;BME280;3673;52.480;13.348;2023-08-06T12:24:41;99842.88;;;21.90;66.73
7264;BME280;3673;52.480;13.348;2023-08-06T12:27:10;99845.13;;;21.82;67.45
7264;BME280;3673;52.480;13.348;2023-08-06T12:29:40;99837.50;;;21.76;66.76
7264;BME280;3673;52.480;13.348;2023-08-06T12:32:07;99851.72;;;21.91;66.33
7264;BME280;3673;52.480;13.348;2023-08-06T12:34:34;99842.94;;;21.75;66.31
7264;BME280;3673;52.480;13.348;2023-08-06T12:37:01;99841.69;;;21.80;65.80
7264;BME280;3673;52.480;13.348;2023-08-06T12:39:28;99844.56;;;21.77;65.25
7264;BME280;3673;52.480;13.348;2023-08-06T12:41:57;99840.22;;;21.90;65.22
7264;BME280;3673;52.480;13.348;2023-08-06T12:44:25;99836.03;;;22.00;65.15
7264;BME280;3673;52.480;13.348;2023-08-06T12:46:51;99847.16;;;21.93;65.41
7264;BME280;3673;52.480;13.348;2023-08-06T12:49:19;99837.09;;;21.98;65.40
7264;BME280;3673;52.480;13.348;2023-08-06T12:51:47;99845.16;;;21.96;65.51
7264;BME280;3673;52.480;13.348;2023-08-06T12:54:14;99840.69;;;21.97;66.10
7264;BME280;3673;52.480;13.348;2023-08-06T12:56:41;99845.28;;;21.95;66.59
7264;BME280;3673;52.480;13.348;2023-08-06T12:59:08;99831.56;;;22.01;66.42
7264;BME280;3673;52.480;13.348;2023-08-06T13:01:37;99829.44;;;21.78;66.31
7264;BME280;3673;52.480;13.348;2023-08-06T13:04:04;99840.44;;;21.72;66.68
7264;BME280;3673;52.480;13.348;2023-08-06T13:06:31;99831.38;;;21.90;66.03